sensor_id;sensor_type;location;lat;lon;timestamp;temperature;humidity
83283;DHT22;73190;50.780;5.658;2024-02-28T00:00:00;3.40;86.30
83283;DHT22;73190;50.780;5.658;2024-02-28T00:02:28;3.50;86.30
83283;DHT22;73190;50.780;5.658;2024-02-28T00:04:56;3.60;86.40
83283;DHT22;73190;50.780;5.658;2024-02-28T00:07:27;3.60;86.20
83283;DHT22;73190;50.780;5.658;2024-02-28T00:09:54;3.60;86.10
83283;DHT22;73190;50.780;5.658;2024-02-28T00:12:24;3.50;86.20
83283;DHT22;73190;50.780;5.658;2024-02-28T00:14:54;3.50;86.00
83283;DHT22;73190;50.780;5.658;2024-02-28T00:17:21;3.60;86.20
83283;DHT22;73190;50.780;5.658;2024-02-28T00:19:49;3.50;85.90
83283;DHT22;73190;50.780;5.658;2024-02-28T00:22:16;3.50;85.70
83283;DHT22;73190;50.780;5.658;2024-02-28T00:24:44;3.50;85.50
83283;DHT22;73190;50.780;5.658;2024-02-28T00:27:11;3.50;85.30
83283;DHT22;73190;50.780;5.658;2024-02-28T00:29:39;3.50;85.30
83283;DHT22;73190;50.780;5.658;2024-02-28T00:32:06;3.40;85.00
83283;DHT22;73190;50.780;5.658;2024-02-28T00:34:34;3.20;84.30
83283;DHT22;73190;50.780;5.658;2024-02-28T00:37:01;3.10;85.50
83283;DHT22;73190;50.780;5.658;2024-02-28T00:39:29;3.00;86.20
83283;DHT22;73190;50.780;5.658;2024-02-28T00:41:56;3.10;86.00
83283;DHT22;73190;50.780;5.658;2024-02-28T00:44:24;3.20;85.90
83283;DHT22;73190;50.780;5.658;2024-02-28T00:46:52;3.30;86.00
83283;DHT22;73190;50.780;5.658;2024-02-28T00:49:19;3.30;86.00
83283;DHT22;73190;50.780;5.658;2024-02-28T00:51:47;3.40;85.60
83283;DHT22;73190;50.780;5.658;2024-02-28T00:54:15;3.20;85.30
83283;DHT22;73190;50.780;5.658;2024-02-28T00:56:42;3.20;85.00
83283;DHT22;73190;50.780;5.658;2024-02-28T00:59:10;3.20;85.40
83283;DHT22;73190;50.780;5.658;2024-02-28T01:01:39;3.30;85.60
83283;DHT22;73190;50.780;5.658;2024-02-28T01:04:08;3.40;85.70
83283;DHT22;73190;50.780;5.658;2024-02-28T01:06:35;3.30;86.20
83283;DHT22;73190;50.780;5.658;2024-02-28T01:09:03;3.50;86.40
83283;DHT22;73190;50.780;5.658;2024-02-28T01:11:31;3.60;86.10
83283;DHT22;73190;50.780;5.658;2024-02-28T01:13:59;3.70;85.40
83283;DHT22;73190;50.780;5.658;2024-02-28T01:16:26;3.70;85.70
83283;DHT22;73190;50.780;5.658;2024-02-28T01:18:54;3.80;85.80
83283;DHT22;73190;50.780;5.658;2024-02-28T01:21:21;3.90;86.20
83283;DHT22;73190;50.780;5.658;2024-02-28T01:23:49;4.00;86.50
83283;DHT22;73190;50.780;5.658;2024-02-28T01:26:16;4.00;86.20
83283;DHT22;73190;50.780;5.658;2024-02-28T01:28:46;4.10;86.50
83283;DHT22;73190;50.780;5.658;2024-02-28T01:31:13;4.10;86.50
83283;DHT22;73190;50.780;5.658;2024-02-28T01:33:41;4.10;86.80
83283;DHT22;73190;50.780;5.658;2024-02-28T01:36:08;4.20;87.10
83283;DHT22;73190;50.780;5.658;2024-02-28T01:38:36;4.30;87.00
83283;DHT22;73190;50.780;5.658;2024-02-28T01:41:04;4.30;87.00
83283;DHT22;73190;50.780;5.658;2024-02-28T01:43:32;4.40;87.00
83283;DHT22;73190;50.780;5.658;2024-02-28T01:48:33;4.30;87.50
83283;DHT22;73190;50.780;5.658;2024-02-28T01:51:01;4.40;87.70
83283;DHT22;73190;50.780;5.658;2024-02-28T01:53:29;4.40;88.00
83283;DHT22;73190;50.780;5.658;2024-02-28T01:55:57;4.40;88.20
83283;DHT22;73190;50.780;5.658;2024-02-28T01:58:25;4.40;88.20
83283;DHT22;73190;50.780;5.658;2024-02-28T02:00:53;4.40;88.20
83283;DHT22;73190;50.780;5.658;2024-02-28T02:03:21;4.50;88.30
83283;DHT22;73190;50.780;5.658;2024-02-28T02:05:49;4.50;88.30
83283;DHT22;73190;50.780;5.658;2024-02-28T02:08:17;4.50;88.20
83283;DHT22;73190;50.780;5.658;2024-02-28T02:10:44;4.60;88.10
83283;DHT22;73190;50.780;5.658;2024-02-28T02:13:12;4.60;88.20
83283;DHT22;73190;50.780;5.658;2024-02-28T02:15:39;4.60;88.40
83283;DHT22;73190;50.780;5.658;2024-02-28T02:18:07;4.60;88.60
83283;DHT22;73190;50.780;5.658;2024-02-28T02:20:38;4.60;88.70
83283;DHT22;73190;50.780;5.658;2024-02-28T02:23:05;4.70;88.50
83283;DHT22;73190;50.780;5.658;2024-02-28T02:25:33;4.80;88.50
83283;DHT22;73190;50.780;5.658;2024-02-28T02:28:00;4.80;88.70
83283;DHT22;73190;50.780;5.658;2024-02-28T02:30:28;4.80;88.80
83283;DHT22;73190;50.780;5.658;2024-02-28T02:32:56;4.60;89.00
83283;DHT22;73190;50.780;5.658;2024-02-28T02:35:23;4.70;89.30
83283;DHT22;73190;50.780;5.658;2024-02-28T02:37:51;4.80;89.40
83283;DHT22;73190;50.780;5.658;2024-02-28T02:40:18;4.90;89.30
83283;DHT22;73190;50.780;5.658;2024-02-28T02:42:46;4.90;89.20
83283;DHT22;73190;50.780;5.658;2024-02-28T02:45:13;5.00;89.00
83283;DHT22;73190;50.780;5.658;2024-02-28T02:47:41;4.90;89.00
83283;DHT22;73190;50.780;5.658;2024-02-28T02:50:10;5.00;89.30
83283;DHT22;73190;50.780;5.658;2024-02-28T02:52:38;5.00;89.20
83283;DHT22;73190;50.780;5.658;2024-02-28T02:55:06;4.60;89.10
83283;DHT22;73190;50.780;5.658;2024-02-28T02:57:35;4.70;89.60
83283;DHT22;73190;50.780;5.658;2024-02-28T03:00:02;4.70;89.80
83283;DHT22;73190;50.780;5.658;2024-02-28T03:02:31;4.80;89.70
83283;DHT22;73190;50.780;5.658;2024-02-28T03:04:58;4.90;89.80
83283;DHT22;73190;50.780;5.658;2024-02-28T03:07:26;4.90;89.60
83283;DHT22;73190;50.780;5.658;2024-02-28T03:09:53;4.90;89.90
83283;DHT22;73190;50.780;5.658;2024-02-28T03:12:21;4.90;89.90
83283;DHT22;73190;50.780;5.658;2024-02-28T03:14:49;5.00;90.00
83283;DHT22;73190;50.780;5.658;2024-02-28T03:17:16;5.00;89.70
83283;DHT22;73190;50.780;5.658;2024-02-28T03:19:44;5.00;90.00
83283;DHT22;73190;50.780;5.658;2024-02-28T03:22:11;5.00;89.90
83283;DHT22;73190;50.780;5.658;2024-02-28T03:24:39;5.10;90.00
83283;DHT22;73190;50.780;5.658;2024-02-28T03:27:06;5.10;90.00
83283;DHT22;73190;50.780;5.658;2024-02-28T03:29:35;5.00;89.90
83283;DHT22;73190;50.780;5.658;2024-02-28T03:32:02;5.00;90.00
83283;DHT22;73190;50.780;5.658;2024-02-28T03:34:30;5.10;90.20
83283;DHT22;73190;50.780;5.658;2024-02-28T03:36:58;5.10;90.00
83283;DHT22;73190;50.780;5.658;2024-02-28T03:39:25;5.10;90.00
83283;DHT22;73190;50.780;5.658;2024-02-28T03:41:53;5.20;90.10
83283;DHT22;73190;50.780;5.658;2024-02-28T03:44:20;5.00;90.00
83283;DHT22;73190;50.780;5.658;2024-02-28T03:46:48;5.10;90.10
83283;DHT22;73190;50.780;5.658;2024-02-28T03:49:17;5.10;90.10
83283;DHT22;73190;50.780;5.658;2024-02-28T03:51:45;5.20;90.10
83283;DHT22;73190;50.780;5.658;2024-02-28T03:54:12;5.30;90.10
83283;DHT22;73190;50.780;5.658;2024-02-28T03:56:40;5.20;89.90
83283;DHT22;73190;50.780;5.658;2024-02-28T03:59:07;5.30;90.00
83283;DHT22;73190;50.780;5.658;2024-02-28T04:01:35;5.30;89.90
83283;DHT22;73190;50.780;5.658;2024-02-28T04:04:03;5.10;90.30
83283;DHT22;73190;50.780;5.658;2024-02-28T04:06:30;5.20;90.30
83283;DHT22;73190;50.780;5.658;2024-02-28T04:08:58;5.20;90.10
83283;DHT22;73190;50.780;5.658;2024-02-28T04:11:25;5.30;90.00
83283;DHT22;73190;50.780;5.658;2024-02-28T04:13:53;5.40;89.80
83283;DHT22;73190;50.780;5.658;2024-02-28T04:16:20;5.40;89.70
83283;DHT22;73190;50.780;5.658;2024-02-28T04:18:48;5.50;89.30
83283;DHT22;73190;50.780;5.658;2024-02-28T04:21:15;5.40;89.10
83283;DHT22;73190;50.780;5.658;2024-02-28T04:23:43;5.50;89.10
83283;DHT22;73190;50.780;5.658;2024-02-28T04:26:10;5.40;89.10
83283;DHT22;73190;50.780;5.658;2024-02-28T04:28:38;5.40;88.60
83283;DHT22;73190;50.780;5.658;2024-02-28T04:31:06;5.30;88.80
83283;DHT22;73190;50.780;5.658;2024-02-28T04:33:34;5.30;89.20
83283;DHT22;73190;50.780;5.658;2024-02-28T04:36:01;5.30;89.20
83283;DHT22;73190;50.780;5.658;2024-02-28T04:38:29;5.40;89.20
83283;DHT22;73190;50.780;5.658;2024-02-28T04:40:56;5.30;89.20
83283;DHT22;73190;50.780;5.658;2024-02-28T04:43:24;5.40;89.50
83283;DHT22;73190;50.780;5.658;2024-02-28T04:45:51;5.30;89.60
83283;DHT22;73190;50.780;5.658;2024-02-28T04:48:19;5.40;89.60
83283;DHT22;73190;50.780;5.658;2024-02-28T04:50:47;5.30;89.80
83283;DHT22;73190;50.780;5.658;2024-02-28T04:53:15;5.30;89.30
83283;DHT22;73190;50.780;5.658;2024-02-28T04:55:42;5.30;90.00
83283;DHT22;73190;50.780;5.658;2024-02-28T04:58:10;5.30;90.00
83283;DHT22;73190;50.780;5.658;2024-02-28T05:00:37;5.10;90.30
83283;DHT22;73190;50.780;5.658;2024-02-28T05:03:05;5.10;90.30
83283;DHT22;73190;50.780;5.658;2024-02-28T05:05:32;5.20;90.30
83283;DHT22;73190;50.780;5.658;2024-02-28T05:08:00;5.10;90.60
83283;DHT22;73190;50.780;5.658;2024-02-28T05:10:27;5.20;90.50
83283;DHT22;73190;50.780;5.658;2024-02-28T05:12:55;5.20;90.50
83283;DHT22;73190;50.780;5.658;2024-02-28T05:15:22;5.20;90.50
83283;DHT22;73190;50.780;5.658;2024-02-28T05:17:53;5.30;90.50
83283;DHT22;73190;50.780;5.658;2024-02-28T05:20:20;5.30;90.30
83283;DHT22;73190;50.780;5.658;2024-02-28T05:22:48;5.40;90.30
83283;DHT22;73190;50.780;5.658;2024-02-28T05:25:15;5.50;89.80
83283;DHT22;73190;50.780;5.658;2024-02-28T05:27:43;5.40;90.20
83283;DHT22;73190;50.780;5.658;2024-02-28T05:30:11;5.40;90.50
83283;DHT22;73190;50.780;5.658;2024-02-28T05:32:40;5.40;90.50
83283;DHT22;73190;50.780;5.658;2024-02-28T05:35:08;5.40;90.40
83283;DHT22;73190;50.780;5.658;2024-02-28T05:37:37;5.50;90.50
83283;DHT22;73190;50.780;5.658;2024-02-28T05:40:07;5.60;90.30
83283;DHT22;73190;50.780;5.658;2024-02-28T05:42:35;5.50;90.20
83283;DHT22;73190;50.780;5.658;2024-02-28T05:45:03;5.60;90.10
83283;DHT22;73190;50.780;5.658;2024-02-28T05:47:31;5.50;90.20
83283;DHT22;73190;50.780;5.658;2024-02-28T05:49:59;5.70;89.30
83283;DHT22;73190;50.780;5.658;2024-02-28T05:52:26;5.70;88.90
83283;DHT22;73190;50.780;5.658;2024-02-28T05:54:54;5.50;89.60
83283;DHT22;73190;50.780;5.658;2024-02-28T05:57:21;5.40;90.10
83283;DHT22;73190;50.780;5.658;2024-02-28T05:59:50;5.20;90.70
83283;DHT22;73190;50.780;5.658;2024-02-28T06:02:17;5.40;90.90
83283;DHT22;73190;50.780;5.658;2024-02-28T06:04:45;5.50;90.40
83283;DHT22;73190;50.780;5.658;2024-02-28T06:07:12;5.40;90.40
83283;DHT22;73190;50.780;5.658;2024-02-28T06:09:40;5.30;90.80
83283;DHT22;73190;50.780;5.658;2024-02-28T06:12:08;5.30;91.00
83283;DHT22;73190;50.780;5.658;2024-02-28T06:14:35;5.50;90.50
83283;DHT22;73190;50.780;5.658;2024-02-28T06:17:04;5.50;90.70
83283;DHT22;73190;50.780;5.658;2024-02-28T06:19:31;5.60;90.20
83283;DHT22;73190;50.780;5.658;2024-02-28T06:21:59;5.80;89.60
83283;DHT22;73190;50.780;5.658;2024-02-28T06:24:26;5.60;90.10
83283;DHT22;73190;50.780;5.658;2024-02-28T06:26:54;5.20;90.20
83283;DHT22;73190;50.780;5.658;2024-02-28T06:29:22;5.50;90.40
83283;DHT22;73190;50.780;5.658;2024-02-28T06:31:52;5.40;90.80
83283;DHT22;73190;50.780;5.658;2024-02-28T06:34:21;5.40;90.60
83283;DHT22;73190;50.780;5.658;2024-02-28T06:36:51;5.50;90.40
83283;DHT22;73190;50.780;5.658;2024-02-28T06:39:18;5.40;90.60
83283;DHT22;73190;50.780;5.658;2024-02-28T06:41:46;5.30;91.00
83283;DHT22;73190;50.780;5.658;2024-02-28T06:44:13;5.40;90.70
83283;DHT22;73190;50.780;5.658;2024-02-28T06:46:41;5.40;90.70
83283;DHT22;73190;50.780;5.658;2024-02-28T06:49:08;5.20;91.20
83283;DHT22;73190;50.780;5.658;2024-02-28T06:51:36;5.10;91.50
83283;DHT22;73190;50.780;5.658;2024-02-28T06:54:04;5.10;91.70
83283;DHT22;73190;50.780;5.658;2024-02-28T06:56:31;5.30;91.20
83283;DHT22;73190;50.780;5.658;2024-02-28T06:58:59;5.30;91.10
83283;DHT22;73190;50.780;5.658;2024-02-28T07:01:26;5.40;91.10
83283;DHT22;73190;50.780;5.658;2024-02-28T07:03:55;5.40;91.00
83283;DHT22;73190;50.780;5.658;2024-02-28T07:06:23;5.40;90.60
83283;DHT22;73190;50.780;5.658;2024-02-28T07:08:51;5.30;91.20
83283;DHT22;73190;50.780;5.658;2024-02-28T07:11:18;5.50;90.70
83283;DHT22;73190;50.780;5.658;2024-02-28T07:13:46;5.60;90.60
83283;DHT22;73190;50.780;5.658;2024-02-28T07:16:14;5.70;90.40
83283;DHT22;73190;50.780;5.658;2024-02-28T07:18:42;5.70;90.50
83283;DHT22;73190;50.780;5.658;2024-02-28T07:21:09;5.80;90.40
83283;DHT22;73190;50.780;5.658;2024-02-28T07:23:40;6.10;90.00
83283;DHT22;73190;50.780;5.658;2024-02-28T07:26:07;6.20;89.70
83283;DHT22;73190;50.780;5.658;2024-02-28T07:28:35;6.20;89.10
83283;DHT22;73190;50.780;5.658;2024-02-28T07:31:03;6.20;90.00
83283;DHT22;73190;50.780;5.658;2024-02-28T07:33:30;6.20;90.10
83283;DHT22;73190;50.780;5.658;2024-02-28T07:35:58;6.20;90.20
83283;DHT22;73190;50.780;5.658;2024-02-28T07:38:27;6.50;88.80
83283;DHT22;73190;50.780;5.658;2024-02-28T07:40:55;6.70;87.90
83283;DHT22;73190;50.780;5.658;2024-02-28T07:43:23;6.70;87.80
83283;DHT22;73190;50.780;5.658;2024-02-28T07:45:50;6.60;88.20
83283;DHT22;73190;50.780;5.658;2024-02-28T07:48:18;6.70;88.20
83283;DHT22;73190;50.780;5.658;2024-02-28T07:50:46;6.70;87.30
83283;DHT22;73190;50.780;5.658;2024-02-28T07:53:13;7.00;85.20
83283;DHT22;73190;50.780;5.658;2024-02-28T07:55:41;6.70;86.40
83283;DHT22;73190;50.780;5.658;2024-02-28T07:58:09;6.80;86.10
83283;DHT22;73190;50.780;5.658;2024-02-28T08:00:37;6.80;86.90
83283;DHT22;73190;50.780;5.658;2024-02-28T08:03:05;6.70;87.00
83283;DHT22;73190;50.780;5.658;2024-02-28T08:05:33;6.90;86.10
83283;DHT22;73190;50.780;5.658;2024-02-28T08:08:02;6.80;86.80
83283;DHT22;73190;50.780;5.658;2024-02-28T08:10:30;7.00;86.40
83283;DHT22;73190;50.780;5.658;2024-02-28T08:12:57;6.90;86.90
83283;DHT22;73190;50.780;5.658;2024-02-28T08:15:25;7.20;86.00
83283;DHT22;73190;50.780;5.658;2024-02-28T08:17:53;7.40;86.50
83283;DHT22;73190;50.780;5.658;2024-02-28T08:20:20;7.50;85.10
83283;DHT22;73190;50.780;5.658;2024-02-28T08:22:48;7.50;85.10
83283;DHT22;73190;50.780;5.658;2024-02-28T08:25:15;7.50;85.40
83283;DHT22;73190;50.780;5.658;2024-02-28T08:27:43;7.30;85.00
83283;DHT22;73190;50.780;5.658;2024-02-28T08:30:11;7.30;86.00
83283;DHT22;73190;50.780;5.658;2024-02-28T08:32:38;7.00;88.30
83283;DHT22;73190;50.780;5.658;2024-02-28T08:35:12;7.10;88.20
83283;DHT22;73190;50.780;5.658;2024-02-28T08:37:40;7.30;87.10
83283;DHT22;73190;50.780;5.658;2024-02-28T08:40:08;7.60;85.70
83283;DHT22;73190;50.780;5.658;2024-02-28T08:42:36;7.80;84.60
83283;DHT22;73190;50.780;5.658;2024-02-28T08:45:04;7.90;83.90
83283;DHT22;73190;50.780;5.658;2024-02-28T08:47:32;8.10;82.30
83283;DHT22;73190;50.780;5.658;2024-02-28T08:50:00;8.10;82.70
83283;DHT22;73190;50.780;5.658;2024-02-28T08:52:27;8.10;83.40
83283;DHT22;73190;50.780;5.658;2024-02-28T08:54:55;8.20;83.90
83283;DHT22;73190;50.780;5.658;2024-02-28T08:57:22;8.40;81.60
83283;DHT22;73190;50.780;5.658;2024-02-28T08:59:50;8.40;82.00
83283;DHT22;73190;50.780;5.658;2024-02-28T09:02:37;8.60;81.30
83283;DHT22;73190;50.780;5.658;2024-02-28T09:05:05;8.60;82.40
83283;DHT22;73190;50.780;5.658;2024-02-28T09:07:33;8.70;80.00
83283;DHT22;73190;50.780;5.658;2024-02-28T09:10:03;8.70;80.00
83283;DHT22;73190;50.780;5.658;2024-02-28T09:12:32;8.60;79.80
83283;DHT22;73190;50.780;5.658;2024-02-28T09:15:00;8.70;79.70
83283;DHT22;73190;50.780;5.658;2024-02-28T09:17:27;8.60;79.30
83283;DHT22;73190;50.780;5.658;2024-02-28T09:19:55;8.50;80.40
83283;DHT22;73190;50.780;5.658;2024-02-28T09:22:22;8.60;79.80
83283;DHT22;73190;50.780;5.658;2024-02-28T09:24:51;8.70;79.40
83283;DHT22;73190;50.780;5.658;2024-02-28T09:27:19;8.90;79.70
83283;DHT22;73190;50.780;5.658;2024-02-28T09:29:46;9.00;80.40
83283;DHT22;73190;50.780;5.658;2024-02-28T09:32:14;9.20;79.50
83283;DHT22;73190;50.780;5.658;2024-02-28T09:34:42;9.60;79.50
83283;DHT22;73190;50.780;5.658;2024-02-28T09:37:09;9.90;77.70
83283;DHT22;73190;50.780;5.658;2024-02-28T09:39:41;9.90;75.50
83283;DHT22;73190;50.780;5.658;2024-02-28T09:42:10;9.80;74.50
83283;DHT22;73190;50.780;5.658;2024-02-28T09:44:37;9.90;76.20
83283;DHT22;73190;50.780;5.658;2024-02-28T09:47:06;9.90;74.70
83283;DHT22;73190;50.780;5.658;2024-02-28T09:49:34;10.20;75.30
83283;DHT22;73190;50.780;5.658;2024-02-28T09:52:04;10.60;74.20
83283;DHT22;73190;50.780;5.658;2024-02-28T09:54:32;11.20;71.20
83283;DHT22;73190;50.780;5.658;2024-02-28T09:57:00;11.60;70.70
83283;DHT22;73190;50.780;5.658;2024-02-28T09:59:27;12.10;68.40
83283;DHT22;73190;50.780;5.658;2024-02-28T10:02:00;12.30;66.00
83283;DHT22;73190;50.780;5.658;2024-02-28T10:04:29;12.50;65.20
83283;DHT22;73190;50.780;5.658;2024-02-28T10:06:57;12.90;64.50
83283;DHT22;73190;50.780;5.658;2024-02-28T10:09:25;13.30;62.80
83283;DHT22;73190;50.780;5.658;2024-02-28T10:11:53;13.80;62.20
83283;DHT22;73190;50.780;5.658;2024-02-28T10:14:21;13.80;61.00
83283;DHT22;73190;50.780;5.658;2024-02-28T10:16:48;13.60;60.40
83283;DHT22;73190;50.780;5.658;2024-02-28T10:19:16;13.60;60.10
83283;DHT22;73190;50.780;5.658;2024-02-28T10:21:43;13.50;62.00
83283;DHT22;73190;50.780;5.658;2024-02-28T10:24:13;13.60;61.20
83283;DHT22;73190;50.780;5.658;2024-02-28T10:26:47;14.00;59.60
83283;DHT22;73190;50.780;5.658;2024-02-28T10:29:16;14.40;58.90
83283;DHT22;73190;50.780;5.658;2024-02-28T10:31:44;14.70;57.90
83283;DHT22;73190;50.780;5.658;2024-02-28T10:34:12;14.70;57.00
83283;DHT22;73190;50.780;5.658;2024-02-28T10:36:41;15.00;57.40
83283;DHT22;73190;50.780;5.658;2024-02-28T10:39:12;15.40;55.90
83283;DHT22;73190;50.780;5.658;2024-02-28T10:41:40;15.60;55.80
83283;DHT22;73190;50.780;5.658;2024-02-28T10:44:09;16.10;54.50
83283;DHT22;73190;50.780;5.658;2024-02-28T10:46:40;17.10;53.80
83283;DHT22;73190;50.780;5.658;2024-02-28T10:49:09;17.70;50.50
83283;DHT22;73190;50.780;5.658;2024-02-28T10:51:37;17.80;49.20
83283;DHT22;73190;50.780;5.658;2024-02-28T10:54:10;18.00;48.20
83283;DHT22;73190;50.780;5.658;2024-02-28T10:56:39;19.10;45.70
83283;DHT22;73190;50.780;5.658;2024-02-28T10:59:09;20.20;45.70
83283;DHT22;73190;50.780;5.658;2024-02-28T11:01:38;20.90;41.80
83283;DHT22;73190;50.780;5.658;2024-02-28T11:04:09;20.80;41.60
83283;DHT22;73190;50.780;5.658;2024-02-28T11:06:54;20.00;41.70
83283;DHT22;73190;50.780;5.658;2024-02-28T11:09:23;20.00;42.90
83283;DHT22;73190;50.780;5.658;2024-02-28T11:11:55;20.10;42.80
83283;DHT22;73190;50.780;5.658;2024-02-28T11:14:22;20.70;41.20
83283;DHT22;73190;50.780;5.658;2024-02-28T11:17:05;20.30;40.50
83283;DHT22;73190;50.780;5.658;2024-02-28T11:19:34;20.40;41.70
83283;DHT22;73190;50.780;5.658;2024-02-28T11:22:04;20.20;40.60
83283;DHT22;73190;50.780;5.658;2024-02-28T11:24:34;20.50;41.80
83283;DHT22;73190;50.780;5.658;2024-02-28T11:27:03;21.20;41.20
83283;DHT22;73190;50.780;5.658;2024-02-28T11:29:32;22.10;39.60
83283;DHT22;73190;50.780;5.658;2024-02-28T11:31:59;22.90;37.20
83283;DHT22;73190;50.780;5.658;2024-02-28T11:34:27;23.80;35.70
83283;DHT22;73190;50.780;5.658;2024-02-28T11:36:55;23.30;35.10
83283;DHT22;73190;50.780;5.658;2024-02-28T11:39:24;22.80;37.80
83283;DHT22;73190;50.780;5.658;2024-02-28T11:41:53;23.00;35.50
83283;DHT22;73190;50.780;5.658;2024-02-28T11:44:20;22.70;35.30
83283;DHT22;73190;50.780;5.658;2024-02-28T11:46:49;22.50;36.60
83283;DHT22;73190;50.780;5.658;2024-02-28T11:49:17;22.50;36.20
83283;DHT22;73190;50.780;5.658;2024-02-28T11:51:45;22.50;36.00
83283;DHT22;73190;50.780;5.658;2024-02-28T11:54:13;22.60;36.50
83283;DHT22;73190;50.780;5.658;2024-02-28T11:56:40;22.60;36.20
83283;DHT22;73190;50.780;5.658;2024-02-28T11:59:09;22.60;36.10
83283;DHT22;73190;50.780;5.658;2024-02-28T12:01:42;22.60;36.20
83283;DHT22;73190;50.780;5.658;2024-02-28T12:04:14;22.50;36.10
83283;DHT22;73190;50.780;5.658;2024-02-28T12:06:42;22.50;37.00
83283;DHT22;73190;50.780;5.658;2024-02-28T12:09:12;22.70;36.50
83283;DHT22;73190;50.780;5.658;2024-02-28T12:11:41;22.90;36.20
83283;DHT22;73190;50.780;5.658;2024-02-28T12:14:09;23.20;34.80
83283;DHT22;73190;50.780;5.658;2024-02-28T12:16:37;23.10;34.50
83283;DHT22;73190;50.780;5.658;2024-02-28T12:19:09;22.60;36.30
83283;DHT22;73190;50.780;5.658;2024-02-28T12:21:38;22.10;37.10
83283;DHT22;73190;50.780;5.658;2024-02-28T12:24:08;22.00;37.10
83283;DHT22;73190;50.780;5.658;2024-02-28T12:26:37;21.60;38.80
83283;DHT22;73190;50.780;5.658;2024-02-28T12:29:05;21.40;37.80
83283;DHT22;73190;50.780;5.658;2024-02-28T12:31:33;21.00;38.90
83283;DHT22;73190;50.780;5.658;2024-02-28T12:34:00;20.80;40.00
83283;DHT22;73190;50.780;5.658;2024-02-28T12:36:29;20.40;41.70
83283;DHT22;73190;50.780;5.658;2024-02-28T12:39:00;20.20;42.90
83283;DHT22;73190;50.780;5.658;2024-02-28T12:41:28;20.50;41.00
83283;DHT22;73190;50.780;5.658;2024-02-28T12:43:55;20.30;42.40
83283;DHT22;73190;50.780;5.658;2024-02-28T12:46:23;20.50;42.10
83283;DHT22;73190;50.780;5.658;2024-02-28T12:48:50;20.60;41.50
83283;DHT22;73190;50.780;5.658;2024-02-28T12:51:40;20.30;41.60
83283;DHT22;73190;50.780;5.658;2024-02-28T12:54:05;20.20;42.20
83283;DHT22;73190;50.780;5.658;2024-02-28T12:56:35;20.10;41.80
83283;DHT22;73190;50.780;5.658;2024-02-28T12:59:03;19.70;42.70
83283;DHT22;73190;50.780;5.658;2024-02-28T13:01:32;19.60;42.90
83283;DHT22;73190;50.780;5.658;2024-02-28T13:04:00;19.40;44.20
83283;DHT22;73190;50.780;5.658;2024-02-28T13:06:27;19.60;44.40
83283;DHT22;73190;50.780;5.658;2024-02-28T13:08:55;19.40;43.10
83283;DHT22;73190;50.780;5.658;2024-02-28T13:11:23;19.10;44.90
83283;DHT22;73190;50.780;5.658;2024-02-28T13:13:52;19.10;44.90
83283;DHT22;73190;50.780;5.658;2024-02-28T13:16:20;19.20;44.20
83283;DHT22;73190;50.780;5.658;2024-02-28T13:18:49;19.10;45.30
83283;DHT22;73190;50.780;5.658;2024-02-28T13:21:17;18.80;44.90
83283;DHT22;73190;50.780;5.658;2024-02-28T13:23:44;18.50;46.60
83283;DHT22;73190;50.780;5.658;2024-02-28T13:26:12;18.30;46.20
83283;DHT22;73190;50.780;5.658;2024-02-28T13:28:47;18.00;46.60
83283;DHT22;73190;50.780;5.658;2024-02-28T13:31:16;17.50;47.70
83283;DHT22;73190;50.780;5.658;2024-02-28T13:33:44;17.20;50.10
83283;DHT22;73190;50.780;5.658;2024-02-28T13:36:11;17.20;50.40
83283;DHT22;73190;50.780;5.658;2024-02-28T13:38:39;16.90;50.20
83283;DHT22;73190;50.780;5.658;2024-02-28T13:41:07;17.00;51.20
83283;DHT22;73190;50.780;5.658;2024-02-28T13:43:34;17.10;50.80
83283;DHT22;73190;50.780;5.658;2024-02-28T13:46:02;17.00;49.30
83283;DHT22;73190;50.780;5.658;2024-02-28T13:48:30;16.80;50.40
83283;DHT22;73190;50.780;5.658;2024-02-28T13:51:00;16.70;49.20
83283;DHT22;73190;50.780;5.658;2024-02-28T13:53:28;16.40;51.30
83283;DHT22;73190;50.780;5.658;2024-02-28T13:55:56;16.70;51.10
83283;DHT22;73190;50.780;5.658;2024-02-28T13:58:23;16.90;49.40
83283;DHT22;73190;50.780;5.658;2024-02-28T14:00:51;16.60;50.70
83283;DHT22;73190;50.780;5.658;2024-02-28T14:03:18;16.30;52.20
83283;DHT22;73190;50.780;5.658;2024-02-28T14:05:47;16.50;51.80
83283;DHT22;73190;50.780;5.658;2024-02-28T14:08:14;16.60;48.00
83283;DHT22;73190;50.780;5.658;2024-02-28T14:10:42;16.70;47.60
83283;DHT22;73190;50.780;5.658;2024-02-28T14:13:10;16.60;48.00
83283;DHT22;73190;50.780;5.658;2024-02-28T14:15:38;16.50;48.40
83283;DHT22;73190;50.780;5.658;2024-02-28T14:18:06;16.30;48.60
83283;DHT22;73190;50.780;5.658;2024-02-28T14:20:35;16.10;48.90
83283;DHT22;73190;50.780;5.658;2024-02-28T14:23:02;16.30;50.30
83283;DHT22;73190;50.780;5.658;2024-02-28T14:25:30;16.60;50.60
83283;DHT22;73190;50.780;5.658;2024-02-28T14:27:57;17.10;50.50
83283;DHT22;73190;50.780;5.658;2024-02-28T14:30:25;17.60;49.20
83283;DHT22;73190;50.780;5.658;2024-02-28T14:32:53;17.70;49.50
83283;DHT22;73190;50.780;5.658;2024-02-28T14:35:21;17.60;48.70
83283;DHT22;73190;50.780;5.658;2024-02-28T14:37:49;17.40;49.90
83283;DHT22;73190;50.780;5.658;2024-02-28T14:40:18;17.60;49.50
83283;DHT22;73190;50.780;5.658;2024-02-28T14:42:46;17.50;48.20
83283;DHT22;73190;50.780;5.658;2024-02-28T14:45:14;17.30;49.50
83283;DHT22;73190;50.780;5.658;2024-02-28T14:47:42;17.10;49.90
83283;DHT22;73190;50.780;5.658;2024-02-28T14:50:11;16.80;50.70
83283;DHT22;73190;50.780;5.658;2024-02-28T14:52:41;16.70;50.60
83283;DHT22;73190;50.780;5.658;2024-02-28T14:55:10;16.50;51.10
83283;DHT22;73190;50.780;5.658;2024-02-28T14:57:39;16.20;51.30
83283;DHT22;73190;50.780;5.658;2024-02-28T15:00:10;15.90;51.70
83283;DHT22;73190;50.780;5.658;2024-02-28T15:02:41;16.10;52.20
83283;DHT22;73190;50.780;5.658;2024-02-28T15:05:09;16.10;53.40
83283;DHT22;73190;50.780;5.658;2024-02-28T15:07:38;16.20;53.30
83283;DHT22;73190;50.780;5.658;2024-02-28T15:10:06;16.30;53.00
83283;DHT22;73190;50.780;5.658;2024-02-28T15:12:34;16.30;52.60
83283;DHT22;73190;50.780;5.658;2024-02-28T15:15:04;16.00;53.90
83283;DHT22;73190;50.780;5.658;2024-02-28T15:17:32;15.80;55.10
83283;DHT22;73190;50.780;5.658;2024-02-28T15:20:01;15.60;55.20
83283;DHT22;73190;50.780;5.658;2024-02-28T15:22:33;15.50;56.70
83283;DHT22;73190;50.780;5.658;2024-02-28T15:25:01;15.60;56.30
83283;DHT22;73190;50.780;5.658;2024-02-28T15:27:30;15.70;55.20
83283;DHT22;73190;50.780;5.658;2024-02-28T15:29:59;15.60;56.70
83283;DHT22;73190;50.780;5.658;2024-02-28T15:32:27;15.80;56.70
83283;DHT22;73190;50.780;5.658;2024-02-28T15:34:54;16.00;55.90
83283;DHT22;73190;50.780;5.658;2024-02-28T15:37:22;16.20;55.00
83283;DHT22;73190;50.780;5.658;2024-02-28T15:39:49;16.50;55.50
83283;DHT22;73190;50.780;5.658;2024-02-28T15:42:17;16.90;52.90
83283;DHT22;73190;50.780;5.658;2024-02-28T15:44:44;16.90;53.40
83283;DHT22;73190;50.780;5.658;2024-02-28T15:47:12;16.20;55.10